Wetter

Diese Seite ist kein Flugwetterbriefingsystem zum Zwecke der meteorologischen Flugvorbereitung gemäß den Durchführungsverordnungen Nr. 2018/1139 (Annex V) & 923/2012 (SERA.2010). Für diesen Zweck nutzen Sie bitte die speziellen Flugwetterbriefingsysteme oder die individuelle Flugwetterberatung.

Unser Platzwetter:

(um das Bild zu aktualisieren oder bei unvollständig geladenem Bild den Reload-Button des Browsers drücken)

METAR: ETNN 280020Z 22002KT 9999 FEW020 BKN050 11/10 Q1018 BLU
TAF: TAF AMD ETNN 271416Z 2714/2723 31005KT 9999 NSW FEW020 BKN050 BKN090 TEMPO 2714/2717 22010G20KT 1000 TSRA BKN010 BKN020CB BKN140 TEMPO 2717/2721 26010KT 4000 SHRA BKN025CB BKN140 PROB30 2717/2721 22010G20KT 2500 TSRA BKN010 BKN020CB BKN140
SR / SS: 03:28 / 19:33 UTC (Vettweiss-Soller 28.05.2024)
[Quelle: ADDS]

decodiert:
Metar von: 28.05.24, 01:20 (Lokalzeit)
Flugregeln: VFR
Wind: aus 260° (W) mit 15 km/h
Sichtweite: 10 km oder mehr
Wolken: leicht bewölkt bei 2000 ft (610 m)
                stark bewölkt bei 5000 ft (1524 m)
Temperatur: 11 °C
Taupunkt: 9 °C, relative Luftfeuchtigkeit 88 %
Luftdruck: 1018 hPa

Aktuelle Windrichtung in Relation zu unserer Bahn:

 

Aktuelle Dichtehöhe bei uns am Platz: 151 ft.